EZY69RJ EGKK-DTNH
Flight info
| Callsign | EZY69RJ |
|---|---|
| Flight time | 2h 48m |
| Altitude | 37000 |
| Route | SFD Y47 BENBO UL612 OGULO DCT OKASI DCT OKEKO DCT MOU DCT MADIV DCT MOKIP DCT TUFTA DCT KOGAS DCT MEDAM DCT NITAM DCT MOGBO DCT ENOBA DCT OLETI DCT EVROG DCT PODOX DCT VELAD DCT ABKON DCT PININ DCT TUNEX UM738 DIDON G727 ATLEL ATLEL1V |
| Aircraft | A320/M-SDE2E3FGHIJ1RWXYZ/LB1 |
Departure
| Time | 2026-05-05 13:19 |
|---|---|
| Airport | London Gatwick Airport (EGKK) |
Arrival
| Time | 2026-05-05 16:07 |
|---|---|
| Airport | Enfidha - Hammamet International Airport (DTNH) |
| Time | Latitude | Longitude | Altitude | Speed | Heading |
|---|---|---|---|---|---|
| 2026-05-05 12:54 | 51.15584 | -0.17686 | 205 ft | 0 kts | 347° |
| 2026-05-05 12:58 | 51.15583 | -0.17686 | 204 ft | 0 kts | 347° |
| 2026-05-05 13:07 | 51.15579 | -0.17684 | 204 ft | 4 kts | 347° |
| 2026-05-05 13:07 | 51.15553 | -0.17675 | 204 ft | 2 kts | 347° |
| 2026-05-05 13:07 | 51.15532 | -0.17666 | 204 ft | 4 kts | 323° |
| 2026-05-05 13:08 | 51.15522 | -0.17636 | 204 ft | 3 kts | 258° |
| 2026-05-05 13:08 | 51.15526 | -0.17607 | 204 ft | 0 kts | 258° |
| 2026-05-05 13:10 | 51.15522 | -0.17633 | 204 ft | 6 kts | 258° |
| 2026-05-05 13:10 | 51.15506 | -0.17734 | 215 ft | 12 kts | 257° |
| 2026-05-05 13:10 | 51.15490 | -0.17857 | 204 ft | 10 kts | 255° |
| 2026-05-05 13:11 | 51.15475 | -0.17961 | 204 ft | 9 kts | 257° |
| 2026-05-05 13:11 | 51.15462 | -0.18056 | 204 ft | 10 kts | 257° |
| 2026-05-05 13:11 | 51.15413 | -0.18152 | 204 ft | 14 kts | 178° |
| 2026-05-05 13:11 | 51.15308 | -0.18116 | 209 ft | 16 kts | 167° |
| 2026-05-05 13:12 | 51.15209 | -0.18140 | 205 ft | 15 kts | 249° |
| 2026-05-05 13:12 | 51.15187 | -0.18287 | 215 ft | 13 kts | 265° |
| 2026-05-05 13:12 | 51.15173 | -0.18415 | 204 ft | 11 kts | 257° |
| 2026-05-05 13:12 | 51.15150 | -0.18585 | 210 ft | 22 kts | 258° |
| 2026-05-05 13:13 | 51.15114 | -0.18847 | 216 ft | 25 kts | 257° |
| 2026-05-05 13:13 | 51.15075 | -0.19117 | 210 ft | 25 kts | 257° |
| 2026-05-05 13:13 | 51.15041 | -0.19371 | 214 ft | 20 kts | 257° |
| 2026-05-05 13:13 | 51.15011 | -0.19588 | 205 ft | 20 kts | 257° |
| 2026-05-05 13:14 | 51.14982 | -0.19802 | 210 ft | 20 kts | 258° |
| 2026-05-05 13:14 | 51.14953 | -0.20015 | 210 ft | 20 kts | 259° |
| 2026-05-05 13:14 | 51.14926 | -0.20213 | 208 ft | 16 kts | 258° |
| 2026-05-05 13:14 | 51.14905 | -0.20370 | 210 ft | 14 kts | 257° |
| 2026-05-05 13:15 | 51.14885 | -0.20509 | 204 ft | 12 kts | 257° |
| 2026-05-05 13:15 | 51.14867 | -0.20635 | 210 ft | 12 kts | 257° |
| 2026-05-05 13:15 | 51.14847 | -0.20778 | 211 ft | 15 kts | 258° |
| 2026-05-05 13:15 | 51.14819 | -0.20977 | 209 ft | 19 kts | 257° |
| 2026-05-05 13:16 | 51.14789 | -0.21162 | 212 ft | 16 kts | 242° |
| 2026-05-05 13:16 | 51.14763 | -0.21322 | 213 ft | 14 kts | 257° |
| 2026-05-05 13:16 | 51.14707 | -0.21400 | 205 ft | 11 kts | 176° |
| 2026-05-05 13:16 | 51.14651 | -0.21347 | 212 ft | 8 kts | 139° |
| 2026-05-05 13:17 | 51.14602 | -0.21320 | 204 ft | 7 kts | 167° |
| 2026-05-05 13:17 | 51.14559 | -0.21301 | 204 ft | 8 kts | 153° |
| 2026-05-05 13:17 | 51.14518 | -0.21187 | 209 ft | 14 kts | 91° |
| 2026-05-05 13:17 | 51.14523 | -0.21137 | 204 ft | 0 kts | 77° |
| 2026-05-05 13:18 | 51.14529 | -0.21101 | 211 ft | 19 kts | 77° |
| 2026-05-05 13:18 | 51.14614 | -0.20484 | 216 ft | 91 kts | 78° |
| 2026-05-05 13:18 | 51.14788 | -0.19220 | 215 ft | 143 kts | 77° |
| 2026-05-05 13:19 | 51.15013 | -0.17502 | 545 ft | 159 kts | 79° |
| 2026-05-05 13:19 | 51.15233 | -0.15802 | 1352 ft | 156 kts | 78° |
| 2026-05-05 13:19 | 51.15461 | -0.14083 | 1965 ft | 165 kts | 78° |
| 2026-05-05 13:19 | 51.15717 | -0.12164 | 2293 ft | 186 kts | 77° |
| 2026-05-05 13:20 | 51.16007 | -0.10049 | 2622 ft | 207 kts | 76° |
| 2026-05-05 13:20 | 51.16111 | -0.07668 | 3133 ft | 226 kts | 101° |
| 2026-05-05 13:20 | 51.15288 | -0.05479 | 3717 ft | 247 kts | 139° |
| 2026-05-05 13:20 | 51.13666 | -0.04280 | 4191 ft | 270 kts | 168° |
| 2026-05-05 13:21 | 51.11774 | -0.03855 | 5004 ft | 275 kts | 172° |
| 2026-05-05 13:21 | 51.09871 | -0.03495 | 5916 ft | 276 kts | 172° |
| 2026-05-05 13:21 | 51.07997 | -0.02944 | 6760 ft | 279 kts | 165° |
| 2026-05-05 13:21 | 51.06135 | -0.02148 | 7540 ft | 283 kts | 163° |
| 2026-05-05 13:22 | 51.04233 | -0.01230 | 8349 ft | 287 kts | 161° |
| 2026-05-05 13:22 | 51.02316 | -0.00269 | 9128 ft | 291 kts | 161° |
| 2026-05-05 13:22 | 51.00371 | 0.00705 | 9899 ft | 294 kts | 161° |
| 2026-05-05 13:22 | 50.98406 | 0.01672 | 10657 ft | 297 kts | 161° |
| 2026-05-05 13:23 | 50.96416 | 0.02637 | 11421 ft | 300 kts | 162° |
| 2026-05-05 13:23 | 50.94407 | 0.03598 | 12173 ft | 303 kts | 162° |
| 2026-05-05 13:23 | 50.92375 | 0.04556 | 12890 ft | 305 kts | 162° |
| 2026-05-05 13:23 | 50.90330 | 0.05512 | 13590 ft | 307 kts | 162° |
| 2026-05-05 13:24 | 50.88293 | 0.06463 | 14281 ft | 310 kts | 162° |
| 2026-05-05 13:24 | 50.86214 | 0.07437 | 14942 ft | 312 kts | 162° |
| 2026-05-05 13:24 | 50.84127 | 0.08412 | 15593 ft | 314 kts | 162° |
| 2026-05-05 13:24 | 50.82023 | 0.09395 | 16211 ft | 317 kts | 162° |
| 2026-05-05 13:25 | 50.79898 | 0.10392 | 16815 ft | 319 kts | 163° |
| 2026-05-05 13:25 | 50.77750 | 0.11335 | 17423 ft | 322 kts | 168° |
| 2026-05-05 13:25 | 50.75514 | 0.11668 | 17966 ft | 326 kts | 180° |
| 2026-05-05 13:25 | 50.73203 | 0.11215 | 18101 ft | 344 kts | 192° |
| 2026-05-05 13:26 | 50.70841 | 0.10344 | 18231 ft | 360 kts | 193° |
| 2026-05-05 13:26 | 50.68354 | 0.09424 | 18512 ft | 370 kts | 193° |
| 2026-05-05 13:26 | 50.65822 | 0.08491 | 18979 ft | 375 kts | 192° |
| 2026-05-05 13:26 | 50.63269 | 0.07558 | 19496 ft | 377 kts | 192° |
| 2026-05-05 13:27 | 50.60687 | 0.06620 | 20005 ft | 380 kts | 192° |
| 2026-05-05 13:27 | 50.58102 | 0.05684 | 20495 ft | 383 kts | 192° |
| 2026-05-05 13:27 | 50.55490 | 0.04740 | 20977 ft | 385 kts | 192° |
| 2026-05-05 13:27 | 50.52891 | 0.03806 | 21435 ft | 388 kts | 192° |
| 2026-05-05 13:28 | 50.50244 | 0.02878 | 21903 ft | 390 kts | 189° |
| 2026-05-05 13:28 | 50.47536 | 0.02514 | 22336 ft | 392 kts | 178° |
| 2026-05-05 13:28 | 50.44822 | 0.03020 | 22757 ft | 394 kts | 166° |
| 2026-05-05 13:28 | 50.42218 | 0.04375 | 23164 ft | 396 kts | 155° |
| 2026-05-05 13:29 | 50.39819 | 0.06518 | 23562 ft | 398 kts | 146° |
| 2026-05-05 13:29 | 50.37529 | 0.08896 | 23944 ft | 401 kts | 146° |
| 2026-05-05 13:29 | 50.35200 | 0.11329 | 24338 ft | 403 kts | 144° |
| 2026-05-05 13:29 | 50.33084 | 0.14244 | 24721 ft | 405 kts | 136° |
| 2026-05-05 13:30 | 50.31038 | 0.17289 | 25116 ft | 407 kts | 136° |
| 2026-05-05 13:30 | 50.28985 | 0.20350 | 25507 ft | 408 kts | 136° |
| 2026-05-05 13:30 | 50.26922 | 0.23425 | 25899 ft | 409 kts | 136° |
| 2026-05-05 13:30 | 50.24855 | 0.26509 | 26285 ft | 410 kts | 137° |
| 2026-05-05 13:31 | 50.22781 | 0.29597 | 26651 ft | 412 kts | 137° |
| 2026-05-05 13:31 | 50.20724 | 0.32661 | 27003 ft | 413 kts | 137° |
| 2026-05-05 13:31 | 50.18637 | 0.35766 | 27350 ft | 415 kts | 137° |
| 2026-05-05 13:31 | 50.16540 | 0.38875 | 27695 ft | 416 kts | 137° |
| 2026-05-05 13:32 | 50.14441 | 0.41981 | 28040 ft | 417 kts | 137° |
| 2026-05-05 13:32 | 50.12322 | 0.45104 | 28390 ft | 418 kts | 137° |
| 2026-05-05 13:32 | 50.10205 | 0.48218 | 28724 ft | 419 kts | 137° |
| 2026-05-05 13:32 | 50.08105 | 0.51304 | 29031 ft | 420 kts | 137° |
| 2026-05-05 13:33 | 50.05970 | 0.54438 | 29355 ft | 421 kts | 137° |
| 2026-05-05 13:33 | 50.03831 | 0.57584 | 29644 ft | 422 kts | 137° |
| 2026-05-05 13:33 | 50.01699 | 0.60721 | 29931 ft | 423 kts | 137° |
| 2026-05-05 13:33 | 49.99553 | 0.63873 | 30211 ft | 424 kts | 137° |
| 2026-05-05 13:34 | 49.97404 | 0.67022 | 30461 ft | 425 kts | 137° |
| 2026-05-05 13:34 | 49.95240 | 0.70179 | 30717 ft | 427 kts | 137° |
| 2026-05-05 13:34 | 49.93099 | 0.73295 | 31002 ft | 427 kts | 137° |
| 2026-05-05 13:34 | 49.90933 | 0.76450 | 31351 ft | 426 kts | 137° |
| 2026-05-05 13:35 | 49.88775 | 0.79591 | 31686 ft | 425 kts | 138° |
| 2026-05-05 13:35 | 49.86623 | 0.82724 | 32015 ft | 424 kts | 138° |
| 2026-05-05 13:35 | 49.84470 | 0.85853 | 32340 ft | 422 kts | 138° |
| 2026-05-05 13:35 | 49.82326 | 0.88961 | 32674 ft | 422 kts | 138° |
| 2026-05-05 13:36 | 49.80186 | 0.92054 | 32989 ft | 421 kts | 139° |
| 2026-05-05 13:36 | 49.78045 | 0.95147 | 33302 ft | 419 kts | 139° |
| 2026-05-05 13:36 | 49.75918 | 0.98222 | 33626 ft | 418 kts | 139° |
| 2026-05-05 13:36 | 49.73794 | 1.01286 | 33920 ft | 417 kts | 139° |
| 2026-05-05 13:37 | 49.71700 | 1.04304 | 34202 ft | 416 kts | 139° |
| 2026-05-05 13:37 | 49.69582 | 1.07353 | 34466 ft | 416 kts | 139° |
| 2026-05-05 13:37 | 49.67457 | 1.10409 | 34678 ft | 417 kts | 139° |
| 2026-05-05 13:37 | 49.65331 | 1.13461 | 34877 ft | 418 kts | 139° |
| 2026-05-05 13:38 | 49.63196 | 1.16523 | 35073 ft | 419 kts | 139° |
| 2026-05-05 13:38 | 49.61058 | 1.19587 | 35285 ft | 419 kts | 139° |
| 2026-05-05 13:38 | 49.58914 | 1.22656 | 35464 ft | 420 kts | 139° |
| 2026-05-05 13:38 | 49.56764 | 1.25731 | 35655 ft | 421 kts | 139° |
| 2026-05-05 13:39 | 49.54618 | 1.28798 | 35828 ft | 421 kts | 139° |
| 2026-05-05 13:39 | 49.52464 | 1.31869 | 36002 ft | 422 kts | 139° |
| 2026-05-05 13:39 | 49.50331 | 1.34905 | 36165 ft | 423 kts | 139° |
| 2026-05-05 13:39 | 49.48163 | 1.37988 | 36328 ft | 423 kts | 139° |
| 2026-05-05 13:40 | 49.45997 | 1.41061 | 36479 ft | 424 kts | 139° |
| 2026-05-05 13:40 | 49.43826 | 1.44140 | 36653 ft | 424 kts | 140° |
| 2026-05-05 13:40 | 49.41662 | 1.47205 | 36843 ft | 422 kts | 140° |
| 2026-05-05 13:40 | 49.39509 | 1.50253 | 36888 ft | 418 kts | 140° |
| 2026-05-05 13:41 | 49.35263 | 1.56248 | 36889 ft | 417 kts | 140° |
| 2026-05-05 13:41 | 49.30994 | 1.62262 | 36878 ft | 416 kts | 140° |
| 2026-05-05 13:42 | 49.26717 | 1.68255 | 36877 ft | 416 kts | 140° |
| 2026-05-05 13:42 | 49.22441 | 1.74244 | 36880 ft | 416 kts | 140° |
| 2026-05-05 13:43 | 49.18191 | 1.80193 | 36879 ft | 416 kts | 140° |
| 2026-05-05 13:43 | 49.13909 | 1.86160 | 36873 ft | 416 kts | 140° |
| 2026-05-05 13:44 | 49.09625 | 1.92130 | 36869 ft | 417 kts | 140° |
| 2026-05-05 13:44 | 49.07824 | 1.94635 | 36871 ft | 417 kts | 140° |
| 2026-05-05 13:45 | 49.03650 | 2.00498 | 36876 ft | 416 kts | 140° |
| 2026-05-05 13:45 | 48.99342 | 2.06415 | 36874 ft | 416 kts | 140° |
| 2026-05-05 13:46 | 48.95029 | 2.12329 | 36870 ft | 416 kts | 140° |
| 2026-05-05 13:46 | 48.90760 | 2.18204 | 36864 ft | 416 kts | 140° |
| 2026-05-05 13:47 | 48.86460 | 2.24111 | 36855 ft | 415 kts | 140° |
| 2026-05-05 13:47 | 48.82161 | 2.30001 | 36851 ft | 415 kts | 140° |
| 2026-05-05 13:48 | 48.77891 | 2.35837 | 36847 ft | 415 kts | 140° |
| 2026-05-05 13:48 | 48.73595 | 2.41693 | 36841 ft | 415 kts | 140° |
| 2026-05-05 13:49 | 48.69288 | 2.47545 | 36838 ft | 415 kts | 140° |
| 2026-05-05 13:49 | 48.65010 | 2.53338 | 36837 ft | 415 kts | 140° |
| 2026-05-05 13:50 | 48.60706 | 2.59171 | 36838 ft | 415 kts | 140° |
| 2026-05-05 13:50 | 48.56396 | 2.64999 | 36837 ft | 415 kts | 140° |
| 2026-05-05 13:51 | 48.52099 | 2.70784 | 36843 ft | 416 kts | 140° |
| 2026-05-05 13:51 | 48.47782 | 2.76590 | 36844 ft | 415 kts | 140° |
| 2026-05-05 13:52 | 48.43481 | 2.82348 | 36842 ft | 416 kts | 140° |
| 2026-05-05 13:52 | 48.39152 | 2.88131 | 36843 ft | 416 kts | 140° |
| 2026-05-05 13:53 | 48.34823 | 2.93921 | 36843 ft | 416 kts | 140° |
| 2026-05-05 13:53 | 48.30518 | 2.99651 | 36844 ft | 416 kts | 141° |
| 2026-05-05 13:54 | 48.26175 | 3.05411 | 36843 ft | 416 kts | 141° |
| 2026-05-05 13:54 | 48.21829 | 3.11179 | 36843 ft | 415 kts | 141° |
| 2026-05-05 13:55 | 48.17516 | 3.16883 | 36842 ft | 415 kts | 141° |
| 2026-05-05 13:55 | 48.13178 | 3.22598 | 36841 ft | 416 kts | 141° |
| 2026-05-05 13:56 | 48.09561 | 3.27350 | 36841 ft | 416 kts | 141° |
| 2026-05-05 13:56 | 48.04500 | 3.33988 | 36838 ft | 416 kts | 141° |
| 2026-05-05 13:57 | 48.00883 | 3.38736 | 36838 ft | 416 kts | 141° |
| 2026-05-05 13:57 | 47.96529 | 3.44431 | 36838 ft | 415 kts | 141° |
| 2026-05-05 13:58 | 47.92171 | 3.50107 | 36830 ft | 416 kts | 141° |
| 2026-05-05 13:58 | 47.87836 | 3.55747 | 36834 ft | 416 kts | 141° |
| 2026-05-05 13:59 | 47.81298 | 3.64226 | 36839 ft | 415 kts | 141° |
| 2026-05-05 14:00 | 47.74746 | 3.72699 | 36838 ft | 416 kts | 141° |
| 2026-05-05 14:00 | 47.70372 | 3.78336 | 36832 ft | 416 kts | 141° |
| 2026-05-05 14:01 | 47.66031 | 3.83919 | 36831 ft | 415 kts | 141° |
| 2026-05-05 14:01 | 47.61662 | 3.89525 | 36830 ft | 415 kts | 141° |
| 2026-05-05 14:02 | 47.57285 | 3.95128 | 36831 ft | 415 kts | 141° |
| 2026-05-05 14:02 | 47.52912 | 4.00712 | 36831 ft | 415 kts | 142° |
| 2026-05-05 14:03 | 47.48554 | 4.06269 | 36831 ft | 415 kts | 142° |
| 2026-05-05 14:03 | 47.44171 | 4.11842 | 36836 ft | 415 kts | 142° |
| 2026-05-05 14:04 | 47.39775 | 4.17406 | 36830 ft | 416 kts | 142° |
| 2026-05-05 14:04 | 47.35376 | 4.22965 | 36840 ft | 416 kts | 142° |
| 2026-05-05 14:05 | 47.30996 | 4.28497 | 36841 ft | 417 kts | 142° |
| 2026-05-05 14:05 | 47.26578 | 4.34065 | 36843 ft | 417 kts | 142° |
| 2026-05-05 14:06 | 47.22167 | 4.39616 | 36844 ft | 417 kts | 143° |
| 2026-05-05 14:06 | 47.17741 | 4.45172 | 36847 ft | 418 kts | 143° |
| 2026-05-05 14:07 | 47.13317 | 4.50716 | 36847 ft | 418 kts | 143° |
| 2026-05-05 14:07 | 47.08913 | 4.56212 | 36846 ft | 418 kts | 143° |
| 2026-05-05 14:08 | 47.04465 | 4.61750 | 36846 ft | 419 kts | 143° |
| 2026-05-05 14:08 | 47.00020 | 4.67276 | 36850 ft | 419 kts | 143° |
| 2026-05-05 14:09 | 46.95561 | 4.72798 | 36856 ft | 419 kts | 143° |
| 2026-05-05 14:09 | 46.91103 | 4.78313 | 36860 ft | 420 kts | 144° |
| 2026-05-05 14:10 | 46.86636 | 4.83834 | 36863 ft | 420 kts | 144° |
| 2026-05-05 14:10 | 46.82190 | 4.89312 | 36867 ft | 420 kts | 144° |
| 2026-05-05 14:11 | 46.77715 | 4.94798 | 36870 ft | 420 kts | 144° |
| 2026-05-05 14:11 | 46.73228 | 5.00294 | 36871 ft | 421 kts | 144° |
| 2026-05-05 14:12 | 46.68740 | 5.05782 | 36872 ft | 420 kts | 144° |
| 2026-05-05 14:12 | 46.64262 | 5.11262 | 36875 ft | 421 kts | 144° |
| 2026-05-05 14:13 | 46.59780 | 5.16722 | 36873 ft | 421 kts | 145° |
| 2026-05-05 14:13 | 46.55308 | 5.22156 | 36880 ft | 421 kts | 145° |
| 2026-05-05 14:14 | 46.50804 | 5.27609 | 36881 ft | 421 kts | 145° |
| 2026-05-05 14:14 | 46.46323 | 5.33019 | 36885 ft | 421 kts | 145° |
| 2026-05-05 14:15 | 46.41821 | 5.38464 | 36889 ft | 421 kts | 145° |
| 2026-05-05 14:15 | 46.37517 | 5.44285 | 36888 ft | 428 kts | 136° |
| 2026-05-05 14:16 | 46.33651 | 5.50859 | 36891 ft | 428 kts | 136° |
| 2026-05-05 14:16 | 46.29813 | 5.57376 | 36886 ft | 428 kts | 136° |
| 2026-05-05 14:17 | 46.25949 | 5.63923 | 36888 ft | 428 kts | 136° |
| 2026-05-05 14:17 | 46.22066 | 5.70465 | 36887 ft | 428 kts | 136° |
| 2026-05-05 14:18 | 46.18393 | 5.76648 | 36898 ft | 428 kts | 137° |
| 2026-05-05 14:18 | 46.14507 | 5.83169 | 36903 ft | 428 kts | 137° |
| 2026-05-05 14:19 | 46.10605 | 5.89693 | 36896 ft | 429 kts | 137° |
| 2026-05-05 14:19 | 46.06738 | 5.96167 | 36902 ft | 429 kts | 137° |
| 2026-05-05 14:20 | 46.02835 | 6.02688 | 36911 ft | 430 kts | 137° |
| 2026-05-05 14:20 | 45.98923 | 6.09197 | 36914 ft | 429 kts | 137° |
| 2026-05-05 14:21 | 45.95003 | 6.15702 | 36907 ft | 429 kts | 137° |
| 2026-05-05 14:21 | 45.91081 | 6.22187 | 36922 ft | 430 kts | 137° |
| 2026-05-05 14:22 | 45.87173 | 6.28630 | 36905 ft | 430 kts | 137° |
| 2026-05-05 14:22 | 45.83242 | 6.35107 | 36920 ft | 430 kts | 137° |
| 2026-05-05 14:23 | 45.78982 | 6.40996 | 36914 ft | 419 kts | 151° |
| 2026-05-05 14:23 | 45.74221 | 6.45839 | 36916 ft | 419 kts | 151° |
| 2026-05-05 14:24 | 45.69475 | 6.50663 | 36903 ft | 419 kts | 151° |
| 2026-05-05 14:24 | 45.64743 | 6.55464 | 36916 ft | 419 kts | 151° |
| 2026-05-05 14:25 | 45.59971 | 6.60298 | 36915 ft | 420 kts | 151° |
| 2026-05-05 14:25 | 45.55198 | 6.65123 | 36935 ft | 420 kts | 151° |
| 2026-05-05 14:26 | 45.50442 | 6.69925 | 36938 ft | 420 kts | 151° |
| 2026-05-05 14:26 | 45.45661 | 6.74745 | 36944 ft | 421 kts | 151° |
| 2026-05-05 14:27 | 45.40880 | 6.79564 | 36944 ft | 421 kts | 151° |
| 2026-05-05 14:27 | 45.36113 | 6.84353 | 36952 ft | 421 kts | 151° |
| 2026-05-05 14:28 | 45.31312 | 6.89146 | 36956 ft | 421 kts | 151° |
| 2026-05-05 14:28 | 45.26536 | 6.93986 | 36957 ft | 425 kts | 146° |
| 2026-05-05 14:29 | 45.22234 | 6.99803 | 36966 ft | 429 kts | 142° |
| 2026-05-05 14:29 | 45.17945 | 7.05715 | 36972 ft | 429 kts | 142° |
| 2026-05-05 14:30 | 45.13653 | 7.11606 | 36976 ft | 429 kts | 142° |
| 2026-05-05 14:30 | 45.09703 | 7.17581 | 36978 ft | 438 kts | 131° |
| 2026-05-05 14:31 | 45.06220 | 7.24624 | 36977 ft | 439 kts | 131° |
| 2026-05-05 14:31 | 45.02708 | 7.31698 | 36977 ft | 439 kts | 131° |
| 2026-05-05 14:32 | 44.99184 | 7.38755 | 36981 ft | 439 kts | 133° |
| 2026-05-05 14:32 | 44.95074 | 7.44961 | 36986 ft | 429 kts | 143° |
| 2026-05-05 14:33 | 44.90763 | 7.50718 | 36988 ft | 430 kts | 143° |
| 2026-05-05 14:33 | 44.86410 | 7.56518 | 36990 ft | 430 kts | 143° |
| 2026-05-05 14:34 | 44.82055 | 7.62303 | 36990 ft | 430 kts | 143° |
| 2026-05-05 14:34 | 44.77721 | 7.68056 | 36993 ft | 430 kts | 143° |
| 2026-05-05 14:35 | 44.73352 | 7.73841 | 36997 ft | 430 kts | 143° |
| 2026-05-05 14:35 | 44.68979 | 7.79616 | 37000 ft | 430 kts | 143° |
| 2026-05-05 14:36 | 44.64632 | 7.85343 | 37005 ft | 431 kts | 143° |
| 2026-05-05 14:36 | 44.60256 | 7.91108 | 37008 ft | 431 kts | 143° |
| 2026-05-05 14:37 | 44.55877 | 7.96861 | 37007 ft | 430 kts | 143° |
| 2026-05-05 14:37 | 44.51520 | 8.02576 | 37003 ft | 430 kts | 143° |
| 2026-05-05 14:38 | 44.47132 | 8.08312 | 36996 ft | 430 kts | 143° |
| 2026-05-05 14:38 | 44.42778 | 8.13993 | 36988 ft | 430 kts | 143° |
| 2026-05-05 14:39 | 44.38391 | 8.19710 | 36985 ft | 430 kts | 143° |
| 2026-05-05 14:39 | 44.34009 | 8.25407 | 36979 ft | 430 kts | 143° |
| 2026-05-05 14:40 | 44.30356 | 8.30140 | 36977 ft | 430 kts | 144° |
| 2026-05-05 14:40 | 44.26071 | 8.36034 | 36978 ft | 434 kts | 140° |
| 2026-05-05 14:41 | 44.21254 | 8.43182 | 36982 ft | 435 kts | 139° |
| 2026-05-05 14:41 | 44.17769 | 8.48329 | 36985 ft | 435 kts | 140° |
| 2026-05-05 14:42 | 44.13596 | 8.54357 | 36988 ft | 434 kts | 140° |
| 2026-05-05 14:42 | 44.09384 | 8.60388 | 36989 ft | 434 kts | 141° |
| 2026-05-05 14:43 | 44.05163 | 8.66426 | 36988 ft | 434 kts | 140° |
| 2026-05-05 14:43 | 44.00975 | 8.72424 | 36985 ft | 434 kts | 140° |
| 2026-05-05 14:44 | 43.96751 | 8.78466 | 36973 ft | 436 kts | 140° |
| 2026-05-05 14:44 | 43.92522 | 8.84509 | 36966 ft | 436 kts | 141° |
| 2026-05-05 14:45 | 43.88303 | 8.90513 | 36962 ft | 437 kts | 140° |
| 2026-05-05 14:45 | 43.84041 | 8.96555 | 36958 ft | 438 kts | 141° |
| 2026-05-05 14:46 | 43.79764 | 9.02611 | 36957 ft | 439 kts | 140° |
| 2026-05-05 14:46 | 43.75543 | 9.08767 | 36956 ft | 441 kts | 139° |
| 2026-05-05 14:47 | 43.71371 | 9.14946 | 36957 ft | 442 kts | 139° |
| 2026-05-05 14:47 | 43.67156 | 9.21128 | 36961 ft | 442 kts | 139° |
| 2026-05-05 14:48 | 43.62918 | 9.27301 | 36962 ft | 442 kts | 139° |
| 2026-05-05 14:48 | 43.58674 | 9.33470 | 36961 ft | 443 kts | 139° |
| 2026-05-05 14:49 | 43.54449 | 9.39601 | 36962 ft | 443 kts | 139° |
| 2026-05-05 14:49 | 43.50185 | 9.45765 | 36965 ft | 444 kts | 140° |
| 2026-05-05 14:50 | 43.45923 | 9.51917 | 36969 ft | 444 kts | 139° |
| 2026-05-05 14:50 | 43.41640 | 9.58086 | 36972 ft | 445 kts | 139° |
| 2026-05-05 14:51 | 43.37389 | 9.64206 | 36976 ft | 445 kts | 139° |
| 2026-05-05 14:51 | 43.33097 | 9.70359 | 36981 ft | 445 kts | 140° |
| 2026-05-05 14:52 | 43.28803 | 9.76499 | 36987 ft | 446 kts | 140° |
| 2026-05-05 14:52 | 43.24274 | 9.82149 | 36988 ft | 436 kts | 152° |
| 2026-05-05 14:53 | 43.19091 | 9.86364 | 36991 ft | 432 kts | 156° |
| 2026-05-05 14:53 | 43.13912 | 9.90470 | 36992 ft | 432 kts | 156° |
| 2026-05-05 14:54 | 43.08702 | 9.94597 | 36989 ft | 432 kts | 156° |
| 2026-05-05 14:54 | 43.03492 | 9.98718 | 36986 ft | 432 kts | 156° |
| 2026-05-05 14:55 | 42.98277 | 10.02824 | 36986 ft | 433 kts | 156° |
| 2026-05-05 14:55 | 42.93041 | 10.06954 | 36978 ft | 435 kts | 156° |
| 2026-05-05 14:56 | 42.87782 | 10.11082 | 36981 ft | 436 kts | 156° |
| 2026-05-05 14:56 | 42.82545 | 10.15180 | 36982 ft | 437 kts | 157° |
| 2026-05-05 14:57 | 42.77275 | 10.19310 | 36992 ft | 436 kts | 157° |
| 2026-05-05 14:57 | 42.72011 | 10.23420 | 37000 ft | 436 kts | 157° |
| 2026-05-05 14:58 | 42.66773 | 10.27497 | 37003 ft | 436 kts | 157° |
| 2026-05-05 14:58 | 42.61511 | 10.31594 | 37009 ft | 436 kts | 157° |
| 2026-05-05 14:59 | 42.56228 | 10.35709 | 37012 ft | 436 kts | 157° |
| 2026-05-05 14:59 | 42.50985 | 10.39775 | 37011 ft | 437 kts | 157° |
| 2026-05-05 15:00 | 42.46589 | 10.43170 | 37010 ft | 437 kts | 157° |
| 2026-05-05 15:00 | 42.40407 | 10.47932 | 37015 ft | 437 kts | 157° |
| 2026-05-05 15:01 | 42.35105 | 10.52010 | 37019 ft | 437 kts | 157° |
| 2026-05-05 15:01 | 42.29818 | 10.56083 | 37025 ft | 437 kts | 157° |
| 2026-05-05 15:02 | 42.24578 | 10.60182 | 37034 ft | 439 kts | 156° |
| 2026-05-05 15:02 | 42.19369 | 10.64521 | 37038 ft | 440 kts | 155° |
| 2026-05-05 15:03 | 42.14162 | 10.68923 | 37040 ft | 440 kts | 155° |
| 2026-05-05 15:03 | 42.08980 | 10.73221 | 37043 ft | 438 kts | 158° |
| 2026-05-05 15:04 | 42.03410 | 10.75997 | 37047 ft | 420 kts | 176° |
| 2026-05-05 15:04 | 41.97674 | 10.76514 | 37041 ft | 410 kts | 186° |
| 2026-05-05 15:05 | 41.89111 | 10.76682 | 37036 ft | 412 kts | 186° |
| 2026-05-05 15:06 | 41.83361 | 10.76800 | 37036 ft | 413 kts | 186° |
| 2026-05-05 15:06 | 41.77613 | 10.76916 | 37036 ft | 413 kts | 186° |
| 2026-05-05 15:07 | 41.71859 | 10.77034 | 37036 ft | 413 kts | 186° |
| 2026-05-05 15:07 | 41.66131 | 10.77156 | 37035 ft | 413 kts | 186° |
| 2026-05-05 15:08 | 41.60362 | 10.77280 | 37035 ft | 413 kts | 186° |
| 2026-05-05 15:08 | 41.54605 | 10.77384 | 37033 ft | 413 kts | 186° |
| 2026-05-05 15:09 | 41.48881 | 10.77498 | 37030 ft | 413 kts | 186° |
| 2026-05-05 15:09 | 41.43114 | 10.77617 | 37023 ft | 413 kts | 186° |
| 2026-05-05 15:10 | 41.37388 | 10.77728 | 37021 ft | 414 kts | 186° |
| 2026-05-05 15:10 | 41.31627 | 10.77838 | 37015 ft | 414 kts | 186° |
| 2026-05-05 15:11 | 41.25868 | 10.77953 | 37014 ft | 414 kts | 186° |
| 2026-05-05 15:11 | 41.20091 | 10.78071 | 37010 ft | 414 kts | 186° |
| 2026-05-05 15:12 | 41.14358 | 10.78186 | 37011 ft | 415 kts | 186° |
| 2026-05-05 15:12 | 41.08579 | 10.78300 | 37005 ft | 416 kts | 186° |
| 2026-05-05 15:13 | 41.02769 | 10.78412 | 37001 ft | 417 kts | 186° |
| 2026-05-05 15:13 | 40.96991 | 10.78521 | 37002 ft | 418 kts | 186° |
| 2026-05-05 15:14 | 40.91169 | 10.78642 | 37002 ft | 418 kts | 186° |
| 2026-05-05 15:14 | 40.85348 | 10.78770 | 37003 ft | 418 kts | 186° |
| 2026-05-05 15:15 | 40.79557 | 10.78883 | 37009 ft | 418 kts | 186° |
| 2026-05-05 15:15 | 40.73720 | 10.78990 | 37013 ft | 419 kts | 186° |
| 2026-05-05 15:16 | 40.67917 | 10.79103 | 37016 ft | 419 kts | 186° |
| 2026-05-05 15:16 | 40.62072 | 10.79218 | 37022 ft | 420 kts | 186° |
| 2026-05-05 15:17 | 40.56217 | 10.79333 | 37025 ft | 420 kts | 186° |
| 2026-05-05 15:17 | 40.50371 | 10.79446 | 37029 ft | 419 kts | 186° |
| 2026-05-05 15:18 | 40.44572 | 10.79565 | 37034 ft | 419 kts | 186° |
| 2026-05-05 15:18 | 40.38723 | 10.79679 | 37027 ft | 419 kts | 186° |
| 2026-05-05 15:19 | 40.32888 | 10.79789 | 37026 ft | 419 kts | 186° |
| 2026-05-05 15:19 | 40.27057 | 10.79902 | 37022 ft | 419 kts | 186° |
| 2026-05-05 15:20 | 40.21263 | 10.80018 | 37020 ft | 418 kts | 186° |
| 2026-05-05 15:20 | 40.15440 | 10.80122 | 37015 ft | 418 kts | 186° |
| 2026-05-05 15:21 | 40.09612 | 10.80223 | 37015 ft | 419 kts | 186° |
| 2026-05-05 15:21 | 40.03770 | 10.80336 | 37017 ft | 419 kts | 186° |
| 2026-05-05 15:22 | 39.97975 | 10.80457 | 37018 ft | 419 kts | 186° |
| 2026-05-05 15:22 | 39.92128 | 10.80576 | 37015 ft | 420 kts | 186° |
| 2026-05-05 15:23 | 39.86264 | 10.80996 | 37015 ft | 427 kts | 176° |
| 2026-05-05 15:23 | 39.80430 | 10.82778 | 37016 ft | 431 kts | 173° |
| 2026-05-05 15:24 | 39.74633 | 10.84585 | 37020 ft | 432 kts | 173° |
| 2026-05-05 15:24 | 39.68776 | 10.86401 | 37026 ft | 432 kts | 173° |
| 2026-05-05 15:25 | 39.62918 | 10.88209 | 37028 ft | 432 kts | 173° |
| 2026-05-05 15:25 | 39.57049 | 10.90018 | 37032 ft | 433 kts | 173° |
| 2026-05-05 15:26 | 39.51182 | 10.91821 | 37040 ft | 433 kts | 173° |
| 2026-05-05 15:26 | 39.45353 | 10.93615 | 37047 ft | 433 kts | 173° |
| 2026-05-05 15:27 | 39.39482 | 10.95427 | 37042 ft | 433 kts | 173° |
| 2026-05-05 15:27 | 39.33618 | 10.97224 | 37044 ft | 432 kts | 173° |
| 2026-05-05 15:28 | 39.27793 | 10.99000 | 37037 ft | 432 kts | 173° |
| 2026-05-05 15:28 | 39.21926 | 11.00789 | 37037 ft | 432 kts | 173° |
| 2026-05-05 15:29 | 39.17057 | 11.02274 | 37042 ft | 432 kts | 173° |
| 2026-05-05 15:29 | 39.11196 | 11.04062 | 37039 ft | 432 kts | 173° |
| 2026-05-05 15:30 | 39.05327 | 11.05847 | 37039 ft | 432 kts | 173° |
| 2026-05-05 15:30 | 38.99475 | 11.07624 | 37035 ft | 432 kts | 173° |
| 2026-05-05 15:31 | 38.93613 | 11.09406 | 37040 ft | 432 kts | 173° |
| 2026-05-05 15:31 | 38.87746 | 11.11177 | 37046 ft | 432 kts | 173° |
| 2026-05-05 15:32 | 38.81921 | 11.12928 | 37050 ft | 433 kts | 173° |
| 2026-05-05 15:32 | 38.76061 | 11.14696 | 37055 ft | 432 kts | 173° |
| 2026-05-05 15:33 | 38.70191 | 11.16463 | 37056 ft | 433 kts | 172° |
| 2026-05-05 15:33 | 38.64331 | 11.18228 | 37062 ft | 433 kts | 172° |
| 2026-05-05 15:34 | 38.58431 | 11.19256 | 37057 ft | 425 kts | 181° |
| 2026-05-05 15:34 | 38.52523 | 11.19863 | 37057 ft | 426 kts | 181° |
| 2026-05-05 15:35 | 38.46648 | 11.20476 | 37057 ft | 426 kts | 181° |
| 2026-05-05 15:35 | 38.40729 | 11.21094 | 37059 ft | 426 kts | 181° |
| 2026-05-05 15:36 | 38.34809 | 11.21705 | 37060 ft | 426 kts | 181° |
| 2026-05-05 15:36 | 38.28938 | 11.22267 | 37059 ft | 423 kts | 186° |
| 2026-05-05 15:37 | 38.23114 | 11.21774 | 37058 ft | 418 kts | 190° |
| 2026-05-05 15:37 | 38.17307 | 11.21199 | 37054 ft | 418 kts | 190° |
| 2026-05-05 15:38 | 38.11498 | 11.20634 | 37051 ft | 418 kts | 190° |
| 2026-05-05 15:38 | 38.05694 | 11.20073 | 37049 ft | 418 kts | 190° |
| 2026-05-05 15:39 | 37.99880 | 11.19507 | 37050 ft | 418 kts | 190° |
| 2026-05-05 15:39 | 37.94105 | 11.18941 | 37046 ft | 419 kts | 189° |
| 2026-05-05 15:40 | 37.88279 | 11.18368 | 37046 ft | 419 kts | 189° |
| 2026-05-05 15:40 | 37.82455 | 11.17799 | 37048 ft | 419 kts | 189° |
| 2026-05-05 15:41 | 37.76659 | 11.17237 | 37050 ft | 420 kts | 189° |
| 2026-05-05 15:41 | 37.70826 | 11.16679 | 37055 ft | 420 kts | 189° |
| 2026-05-05 15:42 | 37.64987 | 11.16116 | 37061 ft | 420 kts | 189° |
| 2026-05-05 15:42 | 37.59162 | 11.15557 | 37055 ft | 419 kts | 189° |
| 2026-05-05 15:43 | 37.53336 | 11.14993 | 36739 ft | 420 kts | 189° |
| 2026-05-05 15:43 | 37.50429 | 11.14710 | 36451 ft | 417 kts | 189° |
| 2026-05-05 15:43 | 37.47540 | 11.14432 | 35943 ft | 415 kts | 189° |
| 2026-05-05 15:43 | 37.44711 | 11.14161 | 35449 ft | 412 kts | 189° |
| 2026-05-05 15:44 | 37.41856 | 11.13887 | 34951 ft | 410 kts | 189° |
| 2026-05-05 15:44 | 37.39013 | 11.13615 | 34450 ft | 408 kts | 189° |
| 2026-05-05 15:44 | 37.36185 | 11.13347 | 33957 ft | 406 kts | 189° |
| 2026-05-05 15:44 | 37.33375 | 11.13078 | 33468 ft | 404 kts | 189° |
| 2026-05-05 15:45 | 37.30584 | 11.12808 | 32976 ft | 402 kts | 189° |
| 2026-05-05 15:45 | 37.27791 | 11.12538 | 32480 ft | 400 kts | 189° |
| 2026-05-05 15:45 | 37.25028 | 11.12274 | 31999 ft | 397 kts | 189° |
| 2026-05-05 15:45 | 37.22280 | 11.12013 | 31516 ft | 395 kts | 189° |
| 2026-05-05 15:46 | 37.19544 | 11.11754 | 31044 ft | 393 kts | 189° |
| 2026-05-05 15:46 | 37.16828 | 11.11496 | 30584 ft | 390 kts | 189° |
| 2026-05-05 15:46 | 37.14134 | 11.11239 | 30131 ft | 387 kts | 189° |
| 2026-05-05 15:46 | 37.11452 | 11.10983 | 29691 ft | 383 kts | 189° |
| 2026-05-05 15:47 | 37.08802 | 11.10727 | 29252 ft | 380 kts | 189° |
| 2026-05-05 15:47 | 37.07061 | 11.10561 | 28975 ft | 378 kts | 189° |
| 2026-05-05 15:47 | 37.03609 | 11.10230 | 28420 ft | 373 kts | 189° |
| 2026-05-05 15:47 | 37.01034 | 11.09984 | 27999 ft | 369 kts | 189° |
| 2026-05-05 15:48 | 36.98483 | 11.09744 | 27591 ft | 366 kts | 189° |
| 2026-05-05 15:48 | 36.95951 | 11.09507 | 27178 ft | 365 kts | 189° |
| 2026-05-05 15:48 | 36.93407 | 11.09264 | 26750 ft | 368 kts | 188° |
| 2026-05-05 15:48 | 36.90847 | 11.09018 | 26315 ft | 368 kts | 188° |
| 2026-05-05 15:49 | 36.88341 | 11.08536 | 25860 ft | 362 kts | 198° |
| 2026-05-05 15:49 | 36.85904 | 11.07778 | 25410 ft | 360 kts | 198° |
| 2026-05-05 15:49 | 36.83475 | 11.07031 | 24942 ft | 358 kts | 197° |
| 2026-05-05 15:49 | 36.81060 | 11.06292 | 24474 ft | 356 kts | 197° |
| 2026-05-05 15:50 | 36.78660 | 11.05559 | 24003 ft | 354 kts | 197° |
| 2026-05-05 15:50 | 36.76296 | 11.04840 | 23534 ft | 353 kts | 197° |
| 2026-05-05 15:50 | 36.73919 | 11.04115 | 23066 ft | 351 kts | 197° |
| 2026-05-05 15:50 | 36.71517 | 11.03377 | 22591 ft | 350 kts | 197° |
| 2026-05-05 15:51 | 36.69152 | 11.02653 | 22119 ft | 349 kts | 197° |
| 2026-05-05 15:51 | 36.66836 | 11.01957 | 21827 ft | 344 kts | 197° |
| 2026-05-05 15:51 | 36.64498 | 11.01259 | 21280 ft | 345 kts | 197° |
| 2026-05-05 15:51 | 36.62189 | 11.00570 | 21042 ft | 338 kts | 197° |
| 2026-05-05 15:52 | 36.59915 | 10.99893 | 20676 ft | 334 kts | 197° |
| 2026-05-05 15:52 | 36.57660 | 10.99221 | 20280 ft | 332 kts | 197° |
| 2026-05-05 15:52 | 36.55436 | 10.98557 | 19686 ft | 327 kts | 197° |
| 2026-05-05 15:52 | 36.53231 | 10.97895 | 19066 ft | 325 kts | 197° |
| 2026-05-05 15:53 | 36.51026 | 10.97232 | 18622 ft | 325 kts | 197° |
| 2026-05-05 15:53 | 36.48827 | 10.96569 | 18185 ft | 324 kts | 198° |
| 2026-05-05 15:53 | 36.46752 | 10.95516 | 17417 ft | 319 kts | 217° |
| 2026-05-05 15:53 | 36.45096 | 10.93832 | 16915 ft | 308 kts | 223° |
| 2026-05-05 15:54 | 36.43492 | 10.92072 | 16390 ft | 306 kts | 223° |
| 2026-05-05 15:54 | 36.41902 | 10.90314 | 16009 ft | 306 kts | 223° |
| 2026-05-05 15:54 | 36.40311 | 10.88552 | 15641 ft | 306 kts | 223° |
| 2026-05-05 15:54 | 36.38726 | 10.86797 | 15277 ft | 305 kts | 223° |
| 2026-05-05 15:55 | 36.37146 | 10.85045 | 14918 ft | 304 kts | 223° |
| 2026-05-05 15:55 | 36.35570 | 10.83300 | 14556 ft | 303 kts | 223° |
| 2026-05-05 15:55 | 36.33993 | 10.81552 | 14191 ft | 303 kts | 223° |
| 2026-05-05 15:55 | 36.32423 | 10.79817 | 13825 ft | 302 kts | 223° |
| 2026-05-05 15:56 | 36.30852 | 10.78082 | 13466 ft | 301 kts | 223° |
| 2026-05-05 15:56 | 36.29308 | 10.76380 | 13104 ft | 301 kts | 223° |
| 2026-05-05 15:56 | 36.27747 | 10.74660 | 12738 ft | 300 kts | 223° |
| 2026-05-05 15:56 | 36.26189 | 10.72941 | 12367 ft | 299 kts | 223° |
| 2026-05-05 15:57 | 36.24631 | 10.71226 | 11979 ft | 299 kts | 222° |
| 2026-05-05 15:57 | 36.23079 | 10.69520 | 11607 ft | 298 kts | 222° |
| 2026-05-05 15:57 | 36.21533 | 10.67821 | 11239 ft | 297 kts | 222° |
| 2026-05-05 15:57 | 36.19998 | 10.66107 | 10843 ft | 296 kts | 226° |
| 2026-05-05 15:58 | 36.18768 | 10.64075 | 10447 ft | 296 kts | 241° |
| 2026-05-05 15:58 | 36.18040 | 10.61729 | 10051 ft | 297 kts | 256° |
| 2026-05-05 15:58 | 36.17731 | 10.59208 | 9664 ft | 296 kts | 261° |
| 2026-05-05 15:58 | 36.17454 | 10.56691 | 9246 ft | 295 kts | 260° |
| 2026-05-05 15:59 | 36.17164 | 10.54172 | 8821 ft | 296 kts | 260° |
| 2026-05-05 15:59 | 36.16874 | 10.51654 | 8447 ft | 293 kts | 259° |
| 2026-05-05 15:59 | 36.16591 | 10.49180 | 8007 ft | 288 kts | 260° |
| 2026-05-05 15:59 | 36.16310 | 10.46718 | 7554 ft | 289 kts | 259° |
| 2026-05-05 16:00 | 36.16029 | 10.44258 | 7120 ft | 289 kts | 259° |
| 2026-05-05 16:00 | 36.15749 | 10.41809 | 6777 ft | 285 kts | 260° |
| 2026-05-05 16:00 | 36.15477 | 10.39414 | 6315 ft | 281 kts | 259° |
| 2026-05-05 16:00 | 36.15211 | 10.37082 | 5941 ft | 268 kts | 259° |
| 2026-05-05 16:01 | 36.14951 | 10.34809 | 5411 ft | 265 kts | 259° |
| 2026-05-05 16:01 | 36.14692 | 10.32555 | 4974 ft | 264 kts | 259° |
| 2026-05-05 16:01 | 36.14439 | 10.30349 | 4600 ft | 255 kts | 259° |
| 2026-05-05 16:01 | 36.14193 | 10.28193 | 4277 ft | 248 kts | 259° |
| 2026-05-05 16:02 | 36.13958 | 10.26122 | 3892 ft | 240 kts | 258° |
| 2026-05-05 16:02 | 36.13593 | 10.24128 | 3399 ft | 234 kts | 242° |
| 2026-05-05 16:02 | 36.12650 | 10.22542 | 3305 ft | 228 kts | 217° |
| 2026-05-05 16:02 | 36.11324 | 10.21636 | 3238 ft | 212 kts | 192° |
| 2026-05-05 16:03 | 36.09899 | 10.21498 | 3123 ft | 203 kts | 169° |
| 2026-05-05 16:03 | 36.08629 | 10.22171 | 3000 ft | 199 kts | 140° |
| 2026-05-05 16:03 | 36.07816 | 10.23517 | 2871 ft | 199 kts | 112° |
| 2026-05-05 16:03 | 36.07624 | 10.25206 | 2660 ft | 200 kts | 93° |
| 2026-05-05 16:04 | 36.07626 | 10.26917 | 2429 ft | 196 kts | 92° |
| 2026-05-05 16:04 | 36.07626 | 10.28572 | 2160 ft | 189 kts | 92° |
| 2026-05-05 16:04 | 36.07621 | 10.30162 | 1962 ft | 180 kts | 92° |
| 2026-05-05 16:04 | 36.07619 | 10.31669 | 1766 ft | 167 kts | 92° |
| 2026-05-05 16:05 | 36.07617 | 10.33037 | 1563 ft | 149 kts | 92° |
| 2026-05-05 16:05 | 36.07617 | 10.34260 | 1319 ft | 137 kts | 92° |
| 2026-05-05 16:05 | 36.07616 | 10.35413 | 1096 ft | 132 kts | 92° |
| 2026-05-05 16:05 | 36.07611 | 10.36538 | 936 ft | 130 kts | 91° |
| 2026-05-05 16:06 | 36.07607 | 10.37655 | 734 ft | 129 kts | 92° |
| 2026-05-05 16:06 | 36.07608 | 10.38759 | 600 ft | 128 kts | 91° |
| 2026-05-05 16:06 | 36.07606 | 10.39876 | 410 ft | 130 kts | 91° |
| 2026-05-05 16:06 | 36.07590 | 10.40989 | 233 ft | 130 kts | 92° |
| 2026-05-05 16:07 | 36.07588 | 10.42104 | 69 ft | 130 kts | 92° |
| 2026-05-05 16:07 | 36.07586 | 10.43152 | 30 ft | 110 kts | 90° |
| 2026-05-05 16:07 | 36.07576 | 10.43830 | 25 ft | 49 kts | 90° |
| 2026-05-05 16:07 | 36.07592 | 10.44189 | 25 ft | 37 kts | 75° |
| 2026-05-05 16:08 | 36.07670 | 10.44388 | 24 ft | 19 kts | 43° |
| 2026-05-05 16:08 | 36.07741 | 10.44362 | 25 ft | 10 kts | 292° |
| 2026-05-05 16:08 | 36.07744 | 10.44279 | 25 ft | 9 kts | 270° |
| 2026-05-05 16:08 | 36.07744 | 10.44205 | 25 ft | 8 kts | 270° |
| 2026-05-05 16:09 | 36.07744 | 10.44134 | 25 ft | 9 kts | 270° |
| 2026-05-05 16:09 | 36.07744 | 10.44064 | 25 ft | 8 kts | 270° |
| 2026-05-05 16:09 | 36.07746 | 10.43976 | 25 ft | 12 kts | 279° |
| 2026-05-05 16:09 | 36.07803 | 10.43931 | 25 ft | 10 kts | 2° |
| 2026-05-05 16:10 | 36.07866 | 10.43932 | 25 ft | 10 kts | 0° |
| 2026-05-05 16:10 | 36.07929 | 10.43932 | 25 ft | 8 kts | 0° |
| 2026-05-05 16:10 | 36.07984 | 10.43933 | 25 ft | 7 kts | 0° |
| 2026-05-05 16:10 | 36.08030 | 10.43916 | 25 ft | 8 kts | 318° |
| 2026-05-05 16:11 | 36.08081 | 10.43900 | 25 ft | 7 kts | 2° |
| 2026-05-05 16:11 | 36.08117 | 10.43900 | 25 ft | 0 kts | 0° |